Quail, Texas
Current Conditions -  °F | °C
As of 2:53 PM on Monday 24 Nov 2014 (Local Time) from KCDS Reporting Station
Few Clouds Few Clouds  
Wind Chill: 13°   Ceiling: Unl
Heat Index: 13°   Visibility: 10mi
Dew Point: -6°   Wind: 7mph
Humidity: 26%   Direction: 260°W
Pressure: 30.02"   Gusts: NA
Location:  34.91°N, 100.4°W
Report Text: KCDS 242053Z AUTO 26006KT 10SM FEW080 13/M06 A3002 RMK AO2 SLP163 T01331061 56020
Loading
Personal Weather Stations






























Interactive Weather Map New forecast layout! Learn more

10-Day Weather Forecast

Advertisements
Track Severe Weather on mobile